Time;durP1;ratioP1;P1;durP2;ratioP2;P2;SDS_P1;SDS_P2;PMS_P1;PMS_P2;Temp;Humidity;BMP_temperature;BMP_pressure;BME280_temperature;BME280_humidity;BME280_pressure;Samples;Min_cycle;Max_cycle;Signal;HPM_P1;HPM_P2
2022/08/12 00:44:14;;;;;;;3.70;1.70;;;21.20;82.00;;;;;;5030932;28;20048;-75
2022/08/12 00:46:51;;;;;;;3.78;2.10;;;21.20;82.60;;;;;;5014606;28;20022;-75
2022/08/12 00:49:18;;;;;;;3.83;2.40;;;21.20;83.30;;;;;;5030520;28;20493;-76
2022/08/12 00:52:05;;;;;;;2.70;1.88;;;21.10;83.90;;;;;;5031824;28;20076;-76
2022/08/12 00:55:00;;;;;;;2.88;1.80;;;21.10;84.70;;;;;;5016302;28;20132;-76
2022/08/12 00:57:35;;;;;;;3.60;1.90;;;21.10;85.60;;;;;;5017257;28;20029;-76
2022/08/12 01:00:07;;;;;;;5.47;2.22;;;21.10;86.20;;;;;;5029325;28;20558;-76
2022/08/12 01:02:35;;;;;;;2.92;2.10;;;21.00;86.50;;;;;;5033042;28;20026;-76
2022/08/12 01:13:22;;;;;;;3.13;1.98;;;20.90;90.00;;;;;;5028619;28;20029;-76
2022/08/12 01:15:56;;;;;;;4.07;1.80;;;20.90;90.20;;;;;;5031794;28;20029;-76
2022/08/12 01:18:27;;;;;;;2.90;2.13;;;20.80;90.40;;;;;;5032392;28;20029;-76
2022/08/12 01:21:05;;;;;;;5.30;2.60;;;20.80;90.40;;;;;;5030097;28;20115;-76
2022/08/12 01:23:45;;;;;;;3.85;2.05;;;20.80;90.60;;;;;;5014077;28;20025;-76
2022/08/12 01:26:24;;;;;;;2.53;1.90;;;20.80;91.00;;;;;;5032595;28;20424;-76
2022/08/12 01:28:58;;;;;;;3.70;2.30;;;20.70;91.50;;;;;;5014911;28;20029;-76
2022/08/12 01:31:25;;;;;;;3.17;1.95;;;20.70;91.50;;;;;;5016749;28;20049;-76
2022/08/12 01:34:05;;;;;;;3.15;2.03;;;20.70;91.90;;;;;;5056251;28;20416;-76
2022/08/12 01:36:46;;;;;;;2.65;2.00;;;20.70;92.10;;;;;;5006432;28;20031;-75
2022/08/12 01:39:15;;;;;;;3.45;2.00;;;20.60;92.30;;;;;;5026297;28;20160;-75
2022/08/12 01:41:51;;;;;;;4.03;2.28;;;20.60;92.40;;;;;;5021814;28;20087;-75
2022/08/12 01:44:18;;;;;;;4.80;2.15;;;20.60;92.70;;;;;;5023484;28;20022;-75
2022/08/12 01:47:31;;;;;;;3.65;1.88;;;20.60;92.90;;;;;;5022109;28;20120;-76
2022/08/12 01:50:00;;;;;;;4.97;1.90;;;20.50;93.10;;;;;;4998840;28;20036;-76
2022/08/12 01:52:55;;;;;;;5.78;2.35;;;20.60;93.30;;;;;;5025340;28;20041;-76
2022/08/12 01:55:36;;;;;;;3.45;2.13;;;20.50;93.40;;;;;;5022367;28;20060;-76
2022/08/12 01:58:27;;;;;;;2.93;2.10;;;20.40;93.70;;;;;;5021496;28;20037;-76
2022/08/12 02:01:12;;;;;;;5.53;2.13;;;20.40;93.80;;;;;;5026708;28;20034;-76
2022/08/12 02:13:32;;;;;;;2.90;2.38;;;20.30;94.90;;;;;;5023304;28;21060;-75
2022/08/12 02:16:07;;;;;;;3.55;2.60;;;20.30;95.00;;;;;;5026403;28;20039;-75
2022/08/12 02:19:01;;;;;;;4.03;2.90;;;20.30;95.10;;;;;;5020358;28;20374;-75
2022/08/12 02:21:27;;;;;;;4.85;3.08;;;20.30;95.10;;;;;;5023926;28;20116;-75
2022/08/12 02:23:54;;;;;;;4.38;2.55;;;20.30;95.10;;;;;;5036569;28;20148;-75
2022/08/12 02:26:23;;;;;;;2.53;2.17;;;20.30;95.30;;;;;;5024528;28;20018;-74
2022/08/12 02:28:51;;;;;;;4.32;2.10;;;20.30;95.30;;;;;;5021290;28;20022;-74
2022/08/12 02:31:17;;;;;;;3.65;2.28;;;20.20;95.30;;;;;;5024251;28;20416;-76
2022/08/12 02:33:46;;;;;;;2.67;1.92;;;20.20;95.30;;;;;;5028454;28;20035;-76
2022/08/12 02:36:14;;;;;;;2.80;1.80;;;20.20;95.30;;;;;;5026369;28;20022;-75
2022/08/12 02:38:42;;;;;;;6.70;1.90;;;20.20;95.50;;;;;;5025175;28;20028;-76
2022/08/12 02:41:10;;;;;;;2.83;1.95;;;20.20;95.50;;;;;;5042447;28;20025;-76
2022/08/12 02:43:44;;;;;;;3.35;1.95;;;20.10;95.60;;;;;;5024961;28;20504;-75
2022/08/12 02:46:11;;;;;;;3.97;2.17;;;20.10;95.70;;;;;;5010277;28;20028;-75
2022/08/12 02:48:50;;;;;;;4.10;2.30;;;20.10;95.80;;;;;;5008672;28;20561;-76
2022/08/12 02:51:22;;;;;;;3.58;2.10;;;20.10;95.80;;;;;;5043650;28;20033;-76
2022/08/12 02:53:49;;;;;;;3.90;2.17;;;20.10;95.70;;;;;;5057643;28;20028;-76
2022/08/12 02:56:16;;;;;;;2.33;1.85;;;20.00;95.80;;;;;;5026078;28;20303;-76
2022/08/12 02:58:45;;;;;;;3.50;1.83;;;20.00;96.20;;;;;;5041627;28;20024;-75
2022/08/12 03:01:12;;;;;;;3.33;2.00;;;20.00;96.20;;;;;;5023829;28;20060;-75
2022/08/12 03:03:40;;;;;;;4.18;2.40;;;20.00;96.30;;;;;;5041528;28;20396;-75
2022/08/12 03:06:19;;;;;;;4.55;2.10;;;20.00;96.10;;;;;;5024268;28;20083;-75
2022/08/12 03:08:47;;;;;;;5.57;2.42;;;20.00;96.50;;;;;;5041375;28;20029;-76
2022/08/12 03:11:19;;;;;;;5.78;1.90;;;19.90;96.70;;;;;;5025805;28;20085;-76
2022/08/12 03:13:50;;;;;;;3.38;2.05;;;19.90;96.80;;;;;;5042605;28;20160;-76
2022/08/12 03:16:18;;;;;;;6.65;1.98;;;19.90;97.00;;;;;;5023847;28;20484;-75
2022/08/12 03:18:44;;;;;;;5.05;1.98;;;19.90;97.10;;;;;;5043885;28;20560;-75
2022/08/12 03:21:12;;;;;;;4.45;2.65;;;19.80;96.90;;;;;;5043589;28;20070;-75
2022/08/12 03:23:41;;;;;;;3.47;2.10;;;19.80;96.90;;;;;;5028706;28;20104;-75
2022/08/12 03:26:07;;;;;;;3.25;2.20;;;19.80;97.10;;;;;;5046407;28;20025;-75
2022/08/12 03:28:49;;;;;;;4.20;2.55;;;19.80;97.00;;;;;;5047109;28;20112;-75
2022/08/12 03:31:18;;;;;;;3.53;2.38;;;19.80;97.10;;;;;;5042324;23;20461;-81
2022/08/12 03:33:46;;;;;;;4.75;2.90;;;19.70;96.90;;;;;;5016739;28;20499;-81
2022/08/12 03:36:17;;;;;;;2.80;2.28;;;19.70;96.80;;;;;;5014293;28;20029;-80
2022/08/12 03:38:49;;;;;;;5.50;2.57;;;19.70;96.80;;;;;;5030742;28;20029;-80
2022/08/12 03:41:36;;;;;;;3.90;2.17;;;19.70;97.00;;;;;;5019698;28;20480;-80
2022/08/12 04:01:05;;;;;;;2.63;1.95;;;19.60;98.00;;;;;;5013527;28;20129;-81
2022/08/12 04:03:51;;;;;;;3.05;2.10;;;19.50;98.20;;;;;;4994734;28;20027;-81
2022/08/12 04:06:29;;;;;;;3.55;1.90;;;19.50;98.20;;;;;;4995871;28;20026;-80
2022/08/12 04:08:57;;;;;;;6.65;2.45;;;19.50;98.40;;;;;;5043890;28;20494;-79
2022/08/12 04:14:12;;;;;;;5.30;2.33;;;19.50;98.50;;;;;;5011387;28;20056;-81
2022/08/12 04:16:39;;;;;;;3.67;2.05;;;19.50;98.50;;;;;;5010406;28;20036;-78
2022/08/12 04:19:06;;;;;;;5.30;3.00;;;19.50;98.50;;;;;;4992279;28;20025;-79
2022/08/12 04:21:32;;;;;;;3.97;2.30;;;19.50;98.70;;;;;;5010001;28;20030;-80
2022/08/12 04:23:59;;;;;;;4.18;2.35;;;19.50;98.60;;;;;;5010410;28;20079;-79
2022/08/12 04:26:26;;;;;;;4.85;2.55;;;19.40;98.50;;;;;;5009646;28;20022;-79
2022/08/12 04:28:55;;;;;;;2.92;2.13;;;19.40;98.50;;;;;;4992573;28;20018;-81
2022/08/12 04:31:36;;;;;;;3.95;2.47;;;19.40;98.70;;;;;;4995092;28;20041;-81
2022/08/12 04:34:03;;;;;;;;;;;19.40;98.70;;;;;;5024932;28;20049;-80
2022/08/12 04:36:30;;;;;;;4.97;2.45;;;19.40;98.80;;;;;;5010189;28;19932;-81
2022/08/12 04:38:57;;;;;;;3.40;2.50;;;19.40;98.60;;;;;;5022470;28;20030;-79
2022/08/12 04:41:24;;;;;;;4.72;2.40;;;19.40;98.70;;;;;;4992564;28;20390;-80
2022/08/12 04:43:50;;;;;;;4.13;2.78;;;19.50;98.90;;;;;;5010056;28;20030;-80
2022/08/12 04:46:16;;;;;;;4.53;2.30;;;19.40;98.80;;;;;;4992191;28;20022;-80
2022/08/12 04:48:42;;;;;;;3.95;2.20;;;19.50;98.80;;;;;;5009253;28;20022;-79
2022/08/12 04:51:08;;;;;;;7.25;2.17;;;19.50;98.80;;;;;;5009870;28;20148;-81
2022/08/12 04:53:34;;;;;;;3.55;2.65;;;19.50;98.80;;;;;;5007828;28;20061;-78
2022/08/12 04:56:00;;;;;;;6.07;2.38;;;19.50;98.90;;;;;;5009361;28;20129;-79
2022/08/12 04:58:27;;;;;;;4.68;2.20;;;19.50;99.00;;;;;;4992614;28;20116;-80
2022/08/12 05:00:53;;;;;;;3.05;2.30;;;19.50;99.10;;;;;;5011766;28;20030;-80
2022/08/12 05:03:19;;;;;;;3.35;2.50;;;19.60;99.00;;;;;;5016937;28;20018;-80
2022/08/12 05:05:45;;;;;;;5.68;2.50;;;19.60;99.00;;;;;;5019243;28;20069;-80
2022/08/12 05:08:14;;;;;;;3.30;2.33;;;19.60;98.90;;;;;;4995476;28;20053;-81
2022/08/12 05:10:41;;;;;;;6.20;2.33;;;19.60;98.90;;;;;;5009255;28;20034;-81
2022/08/12 05:13:13;;;;;;;4.90;2.60;;;19.60;98.70;;;;;;5008288;28;20492;-80
2022/08/12 05:15:40;;;;;;;5.90;2.28;;;19.70;99.10;;;;;;5016482;28;20041;-81
2022/08/12 05:18:06;;;;;;;3.60;2.60;;;19.70;99.00;;;;;;5023895;28;20031;-81
2022/08/12 05:20:33;;;;;;;2.95;2.38;;;19.70;98.90;;;;;;4999055;28;20052;-81
2022/08/12 05:23:12;;;;;;;3.08;2.17;;;19.70;98.80;;;;;;5008072;28;20129;-81
2022/08/12 05:25:39;;;;;;;4.63;2.50;;;19.80;98.90;;;;;;4992668;28;20116;-81
2022/08/12 05:28:04;;;;;;;6.32;2.90;;;19.80;98.90;;;;;;5011236;28;20030;-81
2022/08/12 05:30:31;;;;;;;6.07;2.60;;;19.80;99.00;;;;;;5015596;28;20119;-81
2022/08/12 05:32:57;;;;;;;5.70;2.70;;;19.80;98.50;;;;;;5012325;28;20119;-80
2022/08/12 05:35:23;;;;;;;2.33;1.65;;;19.80;98.60;;;;;;4995461;28;20485;-80
2022/08/12 05:38:54;;;;;;;2.55;1.85;;;19.90;99.40;;;;;;5013804;28;20088;-81
2022/08/12 05:40:35;;;;;;;6.88;2.47;;;20.20;99.10;;;;;;5043989;28;20045;-80
2022/08/12 05:43:00;;;;;;;3.70;2.40;;;20.30;98.90;;;;;;5009867;28;20037;-80
2022/08/12 05:45:26;;;;;;;3.90;2.20;;;20.40;98.50;;;;;;5017448;28;20028;-83
2022/08/12 05:47:52;;;;;;;4.30;2.53;;;20.40;98.30;;;;;;5019263;28;20085;-80
2022/08/12 05:50:18;;;;;;;7.25;2.58;;;20.60;98.10;;;;;;5014713;28;20033;-81
2022/08/12 05:52:44;;;;;;;5.18;2.53;;;20.60;98.10;;;;;;4996755;28;20026;-80
2022/08/12 05:55:10;;;;;;;4.45;2.40;;;20.60;97.90;;;;;;5011763;28;20048;-80
2022/08/12 05:57:36;;;;;;;5.28;2.30;;;20.70;97.90;;;;;;5012898;28;20060;-79
2022/08/12 06:00:03;;;;;;;5.93;2.70;;;20.70;97.70;;;;;;5013235;28;20026;-80
2022/08/12 06:02:28;;;;;;;5.22;2.50;;;20.80;97.70;;;;;;5014464;28;20092;-80
2022/08/12 06:04:56;;;;;;;9.20;2.72;;;20.80;98.00;;;;;;5031465;28;20028;-80
2022/08/12 06:07:22;;;;;;;4.97;2.85;;;20.90;98.00;;;;;;5012164;28;20034;-83
2022/08/12 06:09:48;;;;;;;4.80;2.47;;;20.90;97.70;;;;;;5028314;28;20358;-81
2022/08/12 06:12:16;;;;;;;6.85;2.58;;;21.00;97.30;;;;;;5010945;28;20032;-81
2022/08/12 06:14:43;;;;;;;5.82;2.90;;;20.90;97.60;;;;;;5029445;28;20029;-80
2022/08/12 06:17:09;;;;;;;4.22;2.80;;;21.00;97.70;;;;;;5010706;28;20486;-82
2022/08/12 06:19:35;;;;;;;8.07;2.63;;;21.00;96.80;;;;;;5016024;28;20060;-81
2022/08/12 06:22:01;;;;;;;4.25;2.70;;;20.90;96.90;;;;;;5015857;28;20042;-81
2022/08/12 06:24:28;;;;;;;9.80;2.88;;;20.80;96.80;;;;;;5011641;28;20022;-81
2022/08/12 06:26:55;;;;;;;6.03;2.78;;;20.70;97.10;;;;;;5012683;28;20034;-81
2022/08/12 06:29:22;;;;;;;8.05;2.55;;;20.60;96.90;;;;;;5002584;28;20010;-80
2022/08/12 06:31:49;;;;;;;7.07;2.55;;;20.60;97.10;;;;;;5009103;28;20041;-80
2022/08/12 06:34:16;;;;;;;5.05;3.10;;;20.70;97.20;;;;;;5010205;28;20028;-81
2022/08/12 06:36:43;;;;;;;5.78;2.50;;;20.70;97.10;;;;;;5012980;28;20018;-79
2022/08/12 06:39:13;;;;;;;4.47;2.65;;;20.80;97.10;;;;;;5009254;28;20027;-81
2022/08/12 06:44:24;;;;;;;7.55;2.80;;;20.80;97.30;;;;;;5029321;28;20026;-80
2022/08/12 06:46:51;;;;;;;7.65;3.08;;;20.90;97.10;;;;;;4995754;28;20429;-80
2022/08/12 06:49:17;;;;;;;4.43;2.88;;;20.90;96.90;;;;;;5012677;28;20025;-80
2022/08/12 06:51:43;;;;;;;5.45;2.58;;;20.90;96.70;;;;;;5013521;28;20033;-79
2022/08/12 06:54:10;;;;;;;7.53;2.75;;;21.00;96.70;;;;;;5013307;28;20489;-80
2022/08/12 06:56:36;;;;;;;4.35;2.97;;;21.00;96.60;;;;;;5012272;28;20085;-81
2022/08/12 06:59:02;;;;;;;5.68;2.72;;;21.10;96.40;;;;;;5010895;28;20023;-79
2022/08/12 07:01:30;;;;;;;9.63;2.83;;;21.10;96.40;;;;;;5009349;28;20022;-81
2022/08/12 07:03:55;;;;;;;7.53;3.30;;;21.20;96.40;;;;;;4992914;28;20413;-80
2022/08/12 07:06:22;;;;;;;6.72;3.20;;;21.20;96.40;;;;;;5017127;28;20068;-79
2022/08/12 07:08:48;;;;;;;4.97;2.83;;;21.30;96.30;;;;;;5029059;28;20022;-80
2022/08/12 07:11:14;;;;;;;4.97;2.90;;;21.30;96.10;;;;;;5010873;28;20033;-80
2022/08/12 07:13:43;;;;;;;5.13;2.53;;;21.40;96.00;;;;;;5044786;28;20100;-81
2022/08/12 07:16:20;;;;;;;5.45;2.67;;;21.40;95.90;;;;;;5032492;28;20517;-82
2022/08/12 07:18:49;;;;;;;5.40;2.85;;;21.50;95.70;;;;;;5042258;28;20073;-80
2022/08/12 07:21:16;;;;;;;5.63;2.80;;;21.60;95.70;;;;;;5034604;28;20081;-80
2022/08/12 07:23:42;;;;;;;4.60;2.60;;;21.60;95.40;;;;;;5010930;28;20021;-81
2022/08/12 07:26:11;;;;;;;6.10;2.55;;;21.70;95.30;;;;;;4998778;28;20029;-82
2022/08/12 07:28:40;;;;;;;6.78;2.90;;;21.70;95.20;;;;;;5008725;28;20048;-80
2022/08/12 07:31:08;;;;;;;5.40;2.97;;;21.80;95.20;;;;;;5010218;28;20033;-80
2022/08/12 07:33:39;;;;;;;4.28;3.00;;;21.80;95.20;;;;;;5024691;28;20033;-79
2022/08/12 07:36:09;;;;;;;7.25;3.15;;;21.90;95.00;;;;;;5040924;28;20017;-80
2022/08/12 07:38:46;;;;;;;3.50;2.57;;;22.00;94.80;;;;;;5002277;28;20025;-79
2022/08/12 07:41:22;;;;;;;7.43;3.40;;;21.90;94.70;;;;;;5010859;28;20022;-80
2022/08/12 07:44:12;;;;;;;4.70;3.00;;;22.00;94.60;;;;;;4996604;28;20077;-80
2022/08/12 07:46:42;;;;;;;7.60;2.92;;;22.00;94.60;;;;;;4996927;28;20025;-80
2022/08/12 07:49:12;;;;;;;5.57;2.88;;;22.10;94.50;;;;;;5012820;28;20025;-80
2022/08/12 07:51:39;;;;;;;5.38;3.05;;;22.10;94.40;;;;;;4994151;28;20022;-80
2022/08/12 07:54:08;;;;;;;6.10;3.45;;;22.10;94.20;;;;;;5012125;28;20037;-80
2022/08/12 07:56:36;;;;;;;4.07;2.60;;;22.20;94.10;;;;;;5012635;28;20037;-80
2022/08/12 07:59:03;;;;;;;9.93;2.88;;;22.30;93.90;;;;;;4995468;28;20117;-80
2022/08/12 08:01:29;;;;;;;4.13;2.63;;;22.30;94.00;;;;;;4995349;28;20026;-79
2022/08/12 08:06:41;;;;;;;6.03;3.13;;;22.40;93.70;;;;;;5028473;28;20033;-80
2022/08/12 08:09:09;;;;;;;3.60;2.33;;;22.50;93.60;;;;;;5013903;28;20041;-80
2022/08/12 08:14:19;;;;;;;486.92;351.92;;;22.60;93.30;;;;;;5032395;28;20286;-80
2022/08/12 08:16:47;;;;;;;370.30;263.08;;;22.70;93.20;;;;;;5014200;28;20548;-80
2022/08/12 08:19:22;;;;;;;135.10;95.05;;;22.70;93.00;;;;;;5015261;28;20037;-80
2022/08/12 08:21:49;;;;;;;19.48;14.32;;;22.80;92.80;;;;;;5013657;28;20033;-81
2022/08/12 08:24:17;;;;;;;9.60;7.00;;;22.80;92.30;;;;;;5041393;28;20018;-80
2022/08/12 08:26:46;;;;;;;6.35;4.07;;;22.90;92.30;;;;;;5028088;28;20065;-81
2022/08/12 08:29:13;;;;;;;4.15;2.90;;;23.00;92.20;;;;;;5018364;28;20025;-80
2022/08/12 08:31:42;;;;;;;6.28;2.75;;;23.10;92.10;;;;;;4999286;28;20038;-79
2022/08/12 08:34:12;;;;;;;3.75;2.83;;;23.10;92.00;;;;;;5033060;28;20075;-80
2022/08/12 08:36:38;;;;;;;3.65;2.20;;;23.10;91.70;;;;;;5045472;28;20038;-80
2022/08/12 08:39:09;;;;;;;3.92;2.30;;;23.20;91.60;;;;;;5013792;28;20085;-80
2022/08/12 08:44:20;;;;;;;3.60;2.40;;;23.30;91.20;;;;;;5013703;28;20215;-79
2022/08/12 08:46:48;;;;;;;5.78;2.80;;;23.40;90.80;;;;;;5032666;28;20037;-79
2022/08/12 08:49:15;;;;;;;5.28;2.40;;;23.40;90.70;;;;;;5015986;28;20057;-79
2022/08/12 08:51:43;;;;;;;3.90;2.25;;;23.50;90.60;;;;;;5014592;28;20040;-80
2022/08/12 08:54:11;;;;;;;5.10;2.40;;;23.60;90.60;;;;;;5033503;28;20040;-80
2022/08/12 08:57:11;;;;;;;3.63;2.80;;;23.60;90.30;;;;;;5014210;28;20104;-80
2022/08/12 08:59:33;;;;;;;3.53;2.42;;;23.70;90.20;;;;;;5007076;28;20075;-79
2022/08/12 09:01:59;;;;;;;4.28;2.58;;;23.90;90.20;;;;;;5031839;28;20055;-80
2022/08/12 09:04:24;;;;;;;4.05;2.20;;;23.90;90.00;;;;;;4998947;28;20087;-80
2022/08/12 09:06:57;;;;;;;4.88;2.50;;;24.00;90.00;;;;;;4998854;28;20030;-80
2022/08/12 09:09:23;;;;;;;3.53;2.10;;;24.10;89.50;;;;;;4996901;28;20032;-80
2022/08/12 09:14:36;;;;;;;3.75;2.25;;;24.20;88.50;;;;;;5014436;28;20053;-80
2022/08/12 09:17:01;;;;;;;2.97;2.45;;;24.20;88.50;;;;;;5014538;28;20044;-80
2022/08/12 09:19:28;;;;;;;5.82;2.75;;;24.30;88.60;;;;;;5030650;28;20030;-80
2022/08/12 09:21:54;;;;;;;4.57;2.35;;;24.40;87.50;;;;;;5031431;28;20029;-80
2022/08/12 09:24:19;;;;;;;3.28;2.25;;;24.50;87.50;;;;;;5029906;28;20029;-81
2022/08/12 09:26:46;;;;;;;6.13;2.47;;;24.60;86.90;;;;;;4997037;28;20539;-80
2022/08/12 09:29:19;;;;;;;3.03;2.40;;;24.60;85.70;;;;;;4999424;28;20021;-80
2022/08/12 09:31:46;;;;;;;6.40;2.78;;;24.70;85.70;;;;;;5060388;23;20106;-75
2022/08/12 09:34:13;;;;;;;4.03;2.03;;;24.70;85.50;;;;;;5063943;28;20027;-76
2022/08/12 09:36:40;;;;;;;3.03;1.95;;;24.80;84.00;;;;;;5083505;28;20073;-76
2022/08/12 09:39:06;;;;;;;3.58;2.33;;;24.90;84.10;;;;;;5081235;28;20093;-77
2022/08/12 09:41:44;;;;;;;4.20;2.22;;;25.00;83.70;;;;;;5070176;28;20036;-77
2022/08/12 09:46:56;;;;;;;4.93;2.28;;;25.00;82.00;;;;;;5062451;28;20031;-75
2022/08/12 09:49:23;;;;;;;3.42;2.25;;;25.10;82.00;;;;;;5062900;28;20032;-74
2022/08/12 09:51:49;;;;;;;5.38;2.30;;;25.20;81.60;;;;;;5062151;28;20120;-75
2022/08/12 09:54:16;;;;;;;3.85;2.03;;;25.30;80.60;;;;;;5043956;28;20233;-74
2022/08/12 09:56:44;;;;;;;2.90;2.00;;;25.30;80.10;;;;;;5064964;28;20085;-74
2022/08/12 09:59:10;;;;;;;3.33;2.20;;;25.30;79.60;;;;;;5067286;28;20040;-74
2022/08/12 10:01:39;;;;;;;4.25;2.15;;;25.30;79.20;;;;;;5061891;28;20025;-75
2022/08/12 10:04:09;;;;;;;3.67;2.00;;;25.40;76.70;;;;;;5061866;28;20027;-75
2022/08/12 10:06:38;;;;;;;4.82;2.40;;;25.50;77.60;;;;;;5058816;28;20109;-74
2022/08/12 10:09:08;;;;;;;4.68;2.45;;;25.50;76.60;;;;;;5062349;28;20396;-75
2022/08/12 10:14:20;;;;;;;3.45;2.20;;;25.60;77.20;;;;;;5060967;28;20525;-77
2022/08/12 10:16:48;;;;;;;6.78;2.22;;;25.70;76.10;;;;;;5062832;28;20024;-75
2022/08/12 10:19:15;;;;;;;3.25;1.95;;;25.70;73.50;;;;;;5063806;28;20024;-75
2022/08/12 10:21:42;;;;;;;2.72;2.05;;;25.80;73.70;;;;;;5042858;28;20032;-76
2022/08/12 10:24:14;;;;;;;2.50;2.00;;;25.80;73.70;;;;;;5043687;28;20028;-77
2022/08/12 10:29:38;;;;;;;2.65;1.92;;;25.80;74.70;;;;;;5062331;28;20040;-74
2022/08/12 10:32:18;;;;;;;4.10;2.25;;;25.80;74.40;;;;;;5060942;28;20043;-76
2022/08/12 10:34:44;;;;;;;3.33;2.50;;;25.80;74.20;;;;;;5058255;28;20343;-76
2022/08/12 10:37:10;;;;;;;5.22;2.20;;;25.90;73.70;;;;;;5061071;28;20037;-75
2022/08/12 10:39:38;;;;;;;3.45;1.90;;;26.00;73.10;;;;;;5044904;28;20029;-75
2022/08/12 10:44:59;;;;;;;4.53;2.05;;;26.20;69.10;;;;;;5060793;28;20079;-75
2022/08/12 10:47:34;;;;;;;4.07;1.75;;;26.20;67.40;;;;;;5059256;28;20063;-74
2022/08/12 10:50:00;;;;;;;2.83;2.15;;;26.10;67.30;;;;;;5058638;28;20484;-74
2022/08/12 10:52:29;;;;;;;4.85;2.35;;;26.10;67.40;;;;;;5060641;28;20465;-75
2022/08/12 10:54:55;;;;;;;2.67;2.10;;;26.20;66.90;;;;;;5042224;28;20028;-74
2022/08/12 10:57:23;;;;;;;4.93;2.50;;;26.20;66.60;;;;;;5060860;28;20051;-74
2022/08/12 10:59:49;;;;;;;7.30;2.30;;;26.30;65.60;;;;;;5059019;28;20454;-74
2022/08/12 11:02:15;;;;;;;2.70;1.95;;;26.30;65.60;;;;;;5059038;28;20052;-74
2022/08/12 11:04:42;;;;;;;4.88;2.13;;;26.30;65.50;;;;;;5062116;28;20036;-75
2022/08/12 11:07:08;;;;;;;6.15;2.17;;;26.40;65.20;;;;;;5058358;28;20024;-75
2022/08/12 11:09:36;;;;;;;4.07;2.20;;;26.60;65.00;;;;;;5058896;28;20100;-74
2022/08/12 11:12:05;;;;;;;4.95;2.10;;;26.70;64.50;;;;;;5057602;28;20039;-74
2022/08/12 11:14:37;;;;;;;5.00;2.38;;;26.90;64.20;;;;;;5059915;28;20474;-74
2022/08/12 11:17:08;;;;;;;6.13;2.10;;;27.40;62.80;;;;;;5060208;28;20028;-75
2022/08/12 11:19:36;;;;;;;6.43;2.25;;;28.60;61.60;;;;;;5043073;28;20028;-73
2022/08/12 11:22:03;;;;;;;3.63;2.25;;;30.10;58.20;;;;;;5041479;28;20492;-75
2022/08/12 11:24:29;;;;;;;3.03;2.00;;;31.60;54.40;;;;;;5063055;28;20080;-75
2022/08/12 11:26:56;;;;;;;4.95;2.15;;;33.20;51.20;;;;;;5061191;28;20016;-74
2022/08/12 11:29:23;;;;;;;4.20;1.92;;;34.80;49.10;;;;;;5060991;28;20369;-75
2022/08/12 11:31:50;;;;;;;3.22;2.03;;;36.20;45.90;;;;;;5059712;28;20044;-76
2022/08/12 11:34:17;;;;;;;5.65;1.88;;;37.60;43.40;;;;;;5058176;28;20032;-75
2022/08/12 11:36:54;;;;;;;3.95;2.03;;;38.90;41.40;;;;;;5058596;28;20039;-76
2022/08/12 11:39:20;;;;;;;2.33;2.00;;;39.80;39.70;;;;;;5057705;28;20029;-76
2022/08/12 11:41:46;;;;;;;6.80;2.15;;;40.60;38.90;;;;;;5058259;28;20267;-76
2022/08/12 11:44:12;;;;;;;6.13;2.30;;;40.80;36.70;;;;;;5060498;28;20032;-76
2022/08/12 11:46:39;;;;;;;3.92;2.15;;;39.90;37.00;;;;;;5064443;28;20025;-75
2022/08/12 11:49:06;;;;;;;3.20;2.10;;;40.00;37.00;;;;;;5063790;28;20025;-76
2022/08/12 11:51:33;;;;;;;4.10;2.22;;;39.60;36.70;;;;;;5063665;28;20114;-76
2022/08/12 11:53:59;;;;;;;2.92;2.47;;;39.10;36.30;;;;;;5045231;28;20025;-76
2022/08/12 11:56:25;;;;;;;3.55;2.40;;;38.40;37.20;;;;;;5062271;28;20028;-76
2022/08/12 11:58:50;;;;;;;6.63;2.47;;;37.70;38.00;;;;;;5062345;28;20027;-76
2022/08/12 12:01:16;;;;;;;2.30;2.10;;;37.20;38.50;;;;;;5045759;28;20128;-76
2022/08/12 12:03:42;;;;;;;3.40;2.00;;;36.50;39.00;;;;;;5060914;28;20083;-76
2022/08/12 12:06:08;;;;;;;3.53;2.10;;;36.30;39.70;;;;;;5063699;28;20051;-76
2022/08/12 12:08:34;;;;;;;3.97;2.35;;;35.70;37.80;;;;;;5064207;28;20488;-75
2022/08/12 12:10:59;;;;;;;2.58;1.98;;;35.80;40.40;;;;;;5062299;28;20116;-75
2022/08/12 12:13:25;;;;;;;3.05;2.20;;;36.00;39.10;;;;;;5045439;28;20013;-75
2022/08/12 12:15:51;;;;;;;3.50;2.38;;;36.00;39.60;;;;;;5044797;28;20028;-76
2022/08/12 12:18:30;;;;;;;5.53;2.25;;;36.10;37.40;;;;;;5044383;28;20119;-77
2022/08/12 12:20:59;;;;;;;3.95;2.10;;;36.30;39.40;;;;;;5067290;28;20155;-75
2022/08/12 12:23:25;;;;;;;2.93;2.13;;;36.50;38.90;;;;;;5048316;28;20554;-76
2022/08/12 12:25:52;;;;;;;3.17;2.10;;;36.90;39.70;;;;;;5048478;28;20414;-76
2022/08/12 12:28:17;;;;;;;3.92;2.22;;;36.80;38.40;;;;;;5046378;28;20052;-76
2022/08/12 12:30:43;;;;;;;6.43;2.28;;;36.70;38.70;;;;;;5060471;28;20440;-76
2022/08/12 12:33:10;;;;;;;4.00;1.92;;;36.60;38.50;;;;;;5062142;28;20024;-75
2022/08/12 12:35:37;;;;;;;4.75;2.10;;;36.60;38.70;;;;;;5064760;28;20017;-75
2022/08/12 12:38:08;;;;;;;3.00;2.10;;;36.70;38.70;;;;;;5062469;28;20035;-75
2022/08/12 12:40:36;;;;;;;2.60;2.00;;;37.10;37.70;;;;;;5059331;28;20110;-75
2022/08/12 12:43:02;;;;;;;3.65;2.85;;;37.20;37.50;;;;;;5065478;28;20454;-76
2022/08/12 12:45:29;;;;;;;3.90;2.55;;;37.70;38.10;;;;;;5060437;28;20039;-76
2022/08/12 12:48:11;;;;;;;2.40;1.58;;;38.30;38.00;;;;;;5062172;28;20033;-77
2022/08/12 12:50:38;;;;;;;3.33;1.80;;;38.70;35.90;;;;;;5059953;28;20035;-75
2022/08/12 12:53:05;;;;;;;4.35;2.17;;;38.90;35.70;;;;;;5061046;28;20071;-74
2022/08/12 12:55:34;;;;;;;3.00;2.03;;;39.00;36.30;;;;;;5061981;28;20511;-75
2022/08/12 12:58:03;;;;;;;3.95;2.20;;;39.10;36.40;;;;;;5061855;28;20032;-77
2022/08/12 13:00:34;;;;;;;4.88;2.00;;;39.20;35.60;;;;;;5069479;28;20013;-74
2022/08/12 13:02:59;;;;;;;4.53;1.80;;;39.20;35.10;;;;;;5067828;28;20025;-76
2022/08/12 13:05:34;;;;;;;5.38;1.92;;;39.70;34.90;;;;;;5061273;28;20564;-75
2022/08/12 13:08:02;;;;;;;4.38;1.95;;;39.70;34.60;;;;;;5061434;28;20029;-75
2022/08/12 13:10:30;;;;;;;6.32;2.20;;;39.70;34.50;;;;;;5062450;28;20036;-75
2022/08/12 13:12:56;;;;;;;5.93;2.03;;;39.50;34.50;;;;;;5062016;28;20029;-75
2022/08/12 13:15:22;;;;;;;2.72;1.92;;;39.40;34.10;;;;;;5061465;28;20227;-75
2022/08/12 13:17:49;;;;;;;3.63;2.00;;;40.10;33.10;;;;;;5061237;28;20457;-74
2022/08/12 13:20:17;;;;;;;2.30;1.90;;;40.10;33.80;;;;;;5061766;28;20021;-75
2022/08/12 13:22:44;;;;;;;8.35;2.00;;;40.50;33.60;;;;;;5045704;28;20155;-75
2022/08/12 13:25:10;;;;;;;2.90;2.08;;;40.30;33.70;;;;;;5062442;28;20035;-75
2022/08/12 13:27:46;;;;;;;3.92;2.38;;;40.50;34.30;;;;;;5061756;28;20497;-74
2022/08/12 13:30:15;;;;;;;3.50;2.50;;;40.80;34.40;;;;;;5062651;28;20039;-75
2022/08/12 13:32:49;;;;;;;2.80;1.88;;;41.00;33.90;;;;;;5061019;28;20514;-75
2022/08/12 13:35:16;;;;;;;5.35;2.40;;;41.70;33.20;;;;;;5062162;28;20035;-75
2022/08/12 13:37:55;;;;;;;3.35;2.30;;;42.00;32.70;;;;;;5060695;28;20506;-75
2022/08/12 13:40:26;;;;;;;4.15;2.10;;;42.30;32.90;;;;;;5060056;28;20033;-75
2022/08/12 13:42:56;;;;;;;3.58;1.85;;;42.70;32.40;;;;;;5062556;28;20037;-75
2022/08/12 13:45:29;;;;;;;4.22;2.33;;;42.80;32.80;;;;;;5061578;28;20028;-75
2022/08/12 13:48:05;;;;;;;6.75;2.35;;;43.40;31.80;;;;;;5062316;28;20024;-76
2022/08/12 13:50:35;;;;;;;2.25;1.90;;;44.40;31.30;;;;;;5062214;28;20412;-77
2022/08/12 13:53:07;;;;;;;7.05;2.45;;;44.30;31.80;;;;;;5043807;28;20554;-76
2022/08/12 13:55:33;;;;;;;2.97;2.22;;;44.50;30.90;;;;;;5060804;28;20485;-76
2022/08/12 13:58:00;;;;;;;4.10;2.35;;;44.70;30.70;;;;;;5062190;28;20060;-76
2022/08/12 14:00:26;;;;;;;4.15;2.05;;;44.60;30.80;;;;;;5044378;28;20107;-76
2022/08/12 14:02:52;;;;;;;5.57;2.30;;;44.80;31.10;;;;;;5061051;28;20028;-76
2022/08/12 14:05:18;;;;;;;4.85;2.53;;;44.30;30.20;;;;;;5060872;28;20034;-76
2022/08/12 14:07:58;;;;;;;2.58;1.90;;;43.30;30.70;;;;;;5063024;28;20040;-76
2022/08/12 14:10:36;;;;;;;5.65;2.30;;;42.20;32.40;;;;;;5060864;28;20494;-75
2022/08/12 14:13:13;;;;;;;2.33;2.10;;;40.60;32.60;;;;;;5061657;28;20029;-75
2022/08/12 14:15:41;;;;;;;3.17;2.17;;;39.10;33.90;;;;;;5043941;28;20127;-75
2022/08/12 14:18:12;;;;;;;2.03;1.90;;;37.60;34.30;;;;;;5062271;28;20463;-74
2022/08/12 14:20:39;;;;;;;2.50;2.20;;;36.70;35.90;;;;;;5044694;28;20020;-75
2022/08/12 14:23:05;;;;;;;6.20;2.10;;;35.90;36.00;;;;;;5063168;28;20029;-74
2022/08/12 14:25:31;;;;;;;2.67;2.22;;;35.00;35.70;;;;;;5060989;28;20032;-75
2022/08/12 14:28:10;;;;;;;2.80;2.13;;;34.40;37.70;;;;;;5063214;28;20025;-75
2022/08/12 14:30:50;;;;;;;6.13;2.15;;;33.90;38.90;;;;;;5060916;28;20032;-75
2022/08/12 14:33:16;;;;;;;3.33;1.80;;;33.30;38.40;;;;;;5062071;28;20492;-75
2022/08/12 14:35:42;;;;;;;2.67;2.00;;;32.80;38.50;;;;;;5063146;28;20062;-75
2022/08/12 14:38:19;;;;;;;2.08;1.88;;;32.40;38.30;;;;;;5061960;28;20032;-75
2022/08/12 14:40:49;;;;;;;3.60;2.17;;;32.20;38.70;;;;;;5062866;28;20021;-75
2022/08/12 14:43:15;;;;;;;4.10;1.85;;;31.90;38.70;;;;;;5060676;28;20020;-75